createdAt,value
2018-02-19T00:00:04.895Z,0
2018-02-19T00:05:02.507Z,0
2018-02-19T00:10:03.153Z,0
2018-02-19T00:15:02.626Z,0
2018-02-19T00:20:03.044Z,0
2018-02-19T00:25:02.552Z,0
2018-02-19T00:30:03.060Z,0
2018-02-19T00:35:02.565Z,0
2018-02-19T00:40:03.038Z,0
2018-02-19T00:45:03.412Z,0
2018-02-19T00:50:02.948Z,0
2018-02-19T00:55:03.413Z,0
2018-02-19T01:00:02.821Z,0
2018-02-19T01:05:03.132Z,0
2018-02-19T01:10:02.707Z,0
2018-02-19T01:15:03.144Z,0
2018-02-19T01:20:03.180Z,0
2018-02-19T01:25:02.624Z,0
2018-02-19T01:30:03.137Z,0
2018-02-19T01:35:02.591Z,0
2018-02-19T01:40:03.132Z,1
2018-02-19T01:45:02.580Z,0
2018-02-19T01:50:03.050Z,0
2018-02-19T01:55:02.523Z,0
2018-02-19T02:00:03.005Z,0
2018-02-19T02:05:03.475Z,0
2018-02-19T02:10:02.935Z,0
2018-02-19T02:15:03.385Z,0
2018-02-19T02:20:02.879Z,0
2018-02-19T02:25:03.460Z,0
2018-02-19T02:30:02.918Z,0
2018-02-19T02:35:02.449Z,0
2018-02-19T02:40:02.973Z,0
2018-02-19T02:45:03.431Z,0
2018-02-19T02:50:02.963Z,0
2018-02-19T02:55:03.387Z,0
2018-02-19T03:00:02.857Z,0
2018-02-19T03:05:03.361Z,0
2018-02-19T03:10:02.889Z,0
2018-02-19T03:15:03.475Z,0
2018-02-19T03:20:02.890Z,0
2018-02-19T03:25:03.444Z,0
2018-02-19T03:30:02.882Z,0
2018-02-19T03:35:03.345Z,0
2018-02-19T03:40:02.790Z,0
2018-02-19T03:45:03.269Z,0
2018-02-19T03:50:02.698Z,0
2018-02-19T03:55:03.212Z,0
2018-02-19T04:00:02.702Z,0
2018-02-19T04:05:03.221Z,0
2018-02-19T04:10:03.030Z,0
2018-02-19T04:15:02.476Z,0
2018-02-19T04:20:02.943Z,0
2018-02-19T04:25:03.404Z,0
2018-02-19T04:30:02.854Z,0
2018-02-19T04:35:03.362Z,0
2018-02-19T04:40:02.867Z,0
2018-02-19T04:45:03.422Z,0
2018-02-19T04:50:02.883Z,0
2018-02-19T04:55:03.394Z,0
2018-02-19T05:00:02.879Z,0
2018-02-19T05:05:03.346Z,0
2018-02-19T05:10:02.798Z,0
2018-02-19T05:15:03.370Z,0
2018-02-19T05:20:02.884Z,0
2018-02-19T05:25:03.324Z,1
2018-02-19T05:30:02.927Z,0
2018-02-19T05:35:03.382Z,0
2018-02-19T05:40:02.853Z,0
2018-02-19T05:45:03.338Z,0
2018-02-19T05:50:02.877Z,1
2018-02-19T05:55:03.419Z,1
2018-02-19T06:00:02.859Z,1
2018-02-19T06:05:03.371Z,1
2018-02-19T06:10:02.797Z,1
2018-02-19T06:15:03.283Z,2
2018-02-19T06:20:02.712Z,5
2018-02-19T06:25:03.221Z,12
2018-02-19T06:30:02.711Z,27
2018-02-19T06:35:03.212Z,38
2018-02-19T06:40:02.677Z,57
2018-02-19T06:45:03.144Z,84
2018-02-19T06:50:02.648Z,147
2018-02-19T06:55:03.096Z,278
2018-02-19T07:00:02.550Z,378
2018-02-19T07:05:03.012Z,432
2018-02-19T07:10:02.613Z,522
2018-02-19T07:15:03.144Z,607
2018-02-19T07:20:02.623Z,730
2018-02-19T07:25:03.109Z,878
2018-02-19T07:30:02.683Z,908
2018-02-19T07:35:03.115Z,800
2018-02-19T07:40:02.651Z,937
2018-02-19T07:45:03.254Z,1000
2018-02-19T07:50:02.740Z,1000
2018-02-19T07:55:03.191Z,1000
2018-02-19T08:00:02.562Z,1000
2018-02-19T08:05:03.202Z,2000
2018-02-19T08:10:02.716Z,2000
2018-02-19T08:15:03.234Z,2000
2018-02-19T08:20:02.716Z,2000
2018-02-19T08:25:03.150Z,2000
2018-02-19T08:30:02.585Z,2000
2018-02-19T08:35:03.135Z,2000
2018-02-19T08:40:02.696Z,2000
2018-02-19T08:45:03.275Z,2000
2018-02-19T08:50:02.783Z,3000
2018-02-19T08:55:03.248Z,3000
2018-02-19T09:00:02.713Z,3000
2018-02-19T09:05:03.239Z,3000
2018-02-19T09:10:02.751Z,4000
2018-02-19T09:15:03.218Z,4000
2018-02-19T09:20:03.012Z,4000
2018-02-19T09:25:02.458Z,4000
2018-02-19T09:30:02.931Z,4000
2018-02-19T09:35:03.376Z,4000
2018-02-19T09:40:02.868Z,5000
2018-02-19T09:45:03.363Z,5000
2018-02-19T09:50:02.848Z,5000
2018-02-19T09:55:03.299Z,5000
2018-02-19T10:00:02.785Z,5000
2018-02-19T10:05:03.332Z,5000
2018-02-19T10:10:02.928Z,5000
2018-02-19T10:15:02.891Z,6000
2018-02-19T10:20:03.432Z,6000
2018-02-19T10:25:02.938Z,7000
2018-02-19T10:30:03.422Z,8000
2018-02-19T10:35:02.873Z,7000
2018-02-19T10:40:03.414Z,7000
2018-02-19T10:45:02.899Z,8000
2018-02-19T10:50:03.455Z,9000
2018-02-19T10:55:02.957Z,9000
2018-02-19T11:00:03.578Z,11000
2018-02-19T11:05:03.191Z,9000
2018-02-19T11:10:02.714Z,8000
2018-02-19T11:15:03.170Z,7000
2018-02-19T11:20:02.577Z,9000
2018-02-19T11:25:03.051Z,11000
2018-02-19T11:30:02.546Z,11000
2018-02-19T11:35:03.290Z,9000
2018-02-19T11:40:02.797Z,10000
2018-02-19T11:45:03.276Z,8000
2018-02-19T11:50:02.856Z,8000
2018-02-19T11:55:03.423Z,8000
2018-02-19T12:00:02.856Z,8000
2018-02-19T12:05:03.374Z,8000
2018-02-19T12:10:02.928Z,11000
2018-02-19T12:15:02.458Z,13000
2018-02-19T12:20:02.990Z,8000
2018-02-19T12:25:03.428Z,9000
2018-02-19T12:30:02.929Z,10000
2018-02-19T12:35:03.373Z,9000
2018-02-19T12:40:02.943Z,12000
2018-02-19T12:45:02.491Z,8000
2018-02-19T12:50:03.007Z,15000
2018-02-19T12:55:02.530Z,9000
2018-02-19T13:00:03.028Z,11000
2018-02-19T13:05:02.511Z,8000
2018-02-19T13:10:03.089Z,6000
2018-02-19T13:15:02.608Z,7000
2018-02-19T13:20:03.322Z,8000
2018-02-19T13:25:02.793Z,7000
2018-02-19T13:30:03.309Z,18000
2018-02-19T13:35:02.779Z,8000
2018-02-19T13:40:03.273Z,6000
2018-02-19T13:45:02.777Z,6000
2018-02-19T13:50:03.383Z,6000
2018-02-19T13:55:02.815Z,7000
2018-02-19T14:00:03.394Z,8000
2018-02-19T14:05:02.914Z,8000
2018-02-19T14:10:02.512Z,8000
2018-02-19T14:15:03.018Z,7000
2018-02-19T14:20:02.498Z,5000
2018-02-19T14:25:02.917Z,4000
2018-02-19T14:30:02.470Z,4000
2018-02-19T14:35:03.019Z,4000
2018-02-19T14:40:02.555Z,3000
2018-02-19T14:45:03.034Z,3000
2018-02-19T14:50:02.649Z,2000
2018-02-19T14:55:03.169Z,2000
2018-02-19T15:00:02.705Z,2000
2018-02-19T15:05:03.152Z,2000
2018-02-19T15:10:02.632Z,2000
2018-02-19T15:15:03.165Z,2000
2018-02-19T15:20:02.740Z,1000
2018-02-19T15:25:03.243Z,1000
2018-02-19T15:30:02.849Z,1000
2018-02-19T15:35:03.293Z,1000
2018-02-19T15:40:02.797Z,1000
2018-02-19T15:45:03.648Z,1000
2018-02-19T15:50:03.179Z,1000
2018-02-19T15:55:02.649Z,1000
2018-02-19T16:00:03.142Z,907
2018-02-19T16:05:02.595Z,776
2018-02-19T16:10:03.120Z,701
2018-02-19T16:15:02.630Z,592
2018-02-19T16:20:03.098Z,514
2018-02-19T16:25:02.519Z,452
2018-02-19T16:30:03.032Z,396
2018-02-19T16:35:02.543Z,329
2018-02-19T16:40:03.065Z,265
2018-02-19T16:45:02.513Z,141
2018-02-19T16:50:03.089Z,87
2018-02-19T16:55:02.575Z,63
2018-02-19T17:00:03.032Z,54
2018-02-19T17:05:02.557Z,41
2018-02-19T17:10:03.109Z,26
2018-02-19T17:15:02.620Z,13
2018-02-19T17:20:03.134Z,6
2018-02-19T17:25:02.658Z,3
2018-02-19T17:30:03.133Z,1
2018-02-19T17:35:02.626Z,1
2018-02-19T17:40:03.146Z,0
2018-02-19T17:45:02.625Z,0
2018-02-19T17:50:03.498Z,0
2018-02-19T17:55:03.002Z,0
2018-02-19T18:00:02.516Z,0
2018-02-19T18:05:02.976Z,0
2018-02-19T18:10:02.468Z,0
2018-02-19T18:15:02.955Z,0
2018-02-19T18:20:03.464Z,0
2018-02-19T18:25:02.916Z,0
2018-02-19T18:30:03.448Z,0
2018-02-19T18:35:03.242Z,0
2018-02-19T18:40:02.799Z,0
2018-02-19T18:45:03.235Z,0
2018-02-19T18:50:02.688Z,0
2018-02-19T18:55:03.201Z,0
2018-02-19T19:00:02.706Z,0
2018-02-19T19:05:03.230Z,0
2018-02-19T19:10:02.804Z,0
2018-02-19T19:15:03.264Z,0
2018-02-19T19:20:02.750Z,0
2018-02-19T19:25:03.255Z,0
2018-02-19T19:30:02.770Z,0
2018-02-19T19:35:03.355Z,0
2018-02-19T19:40:02.978Z,0
2018-02-19T19:45:02.744Z,0
2018-02-19T19:50:03.327Z,0
2018-02-19T19:55:02.994Z,0
2018-02-19T20:00:02.477Z,0
2018-02-19T20:05:03.026Z,0
2018-02-19T20:10:02.617Z,0
2018-02-19T20:15:03.085Z,0
2018-02-19T20:20:02.761Z,0
2018-02-19T20:25:03.336Z,0
2018-02-19T20:30:02.709Z,0
2018-02-19T20:35:03.275Z,0
2018-02-19T20:40:02.817Z,0
2018-02-19T20:45:03.365Z,0
2018-02-19T20:50:02.949Z,0
2018-02-19T20:55:02.572Z,0
2018-02-19T21:00:03.067Z,0
2018-02-19T21:05:02.590Z,0
2018-02-19T21:10:03.177Z,0
2018-02-19T21:15:02.759Z,0
2018-02-19T21:20:03.245Z,0
2018-02-19T21:25:02.693Z,0
2018-02-19T21:30:03.154Z,0
2018-02-19T21:35:02.690Z,0
2018-02-19T21:40:03.221Z,0
2018-02-19T21:45:02.700Z,0
2018-02-19T21:50:03.184Z,0
2018-02-19T21:55:02.693Z,0
2018-02-19T22:00:03.550Z,0
2018-02-19T22:05:03.041Z,0
2018-02-19T22:10:02.616Z,0
2018-02-19T22:15:03.150Z,0
2018-02-19T22:20:02.663Z,0
2018-02-19T22:25:03.179Z,0
2018-02-19T22:30:02.554Z,0
2018-02-19T22:35:02.976Z,0
2018-02-19T22:40:02.526Z,0
2018-02-19T22:45:03.072Z,0
2018-02-19T22:50:02.487Z,0
2018-02-19T22:55:02.990Z,0
2018-02-19T23:00:02.494Z,0
2018-02-19T23:05:02.960Z,0
2018-02-19T23:10:02.481Z,0
2018-02-19T23:15:03.018Z,0
2018-02-19T23:20:02.509Z,0
2018-02-19T23:25:02.928Z,0
2018-02-19T23:30:03.391Z,0
2018-02-19T23:35:03.123Z,0
2018-02-19T23:40:02.632Z,0
2018-02-19T23:45:03.108Z,0
2018-02-19T23:50:02.621Z,0
2018-02-19T23:55:03.080Z,0
